Time;durP1;ratioP1;P1;durP2;ratioP2;P2;SDS_P1;SDS_P2;PMS_P1;PMS_P2;Temp;Humidity;BMP_temperature;BMP_pressure;BME280_temperature;BME280_humidity;BME280_pressure;Samples;Min_cycle;Max_cycle;Signal;HPM_P1;HPM_P2
2023/08/29 00:02:05;;;;;;;1.90;1.80;;;23.50;51.20;;;;;;5020588;28;20253;-66
2023/08/29 00:04:31;;;;;;;1.80;1.70;;;23.60;56.40;;;;;;5020567;28;20222;-67
2023/08/29 00:06:56;;;;;;;1.93;1.83;;;23.50;53.20;;;;;;5017771;28;20229;-67
2023/08/29 00:09:22;;;;;;;1.67;1.57;;;23.50;50.90;;;;;;5019565;28;20222;-69
2023/08/29 00:11:48;;;;;;;1.70;1.60;;;23.60;48.80;;;;;;5019552;28;20693;-68
2023/08/29 00:14:13;;;;;;;1.70;1.60;;;23.50;47.80;;;;;;5021473;28;20225;-67
2023/08/29 00:16:39;;;;;;;1.80;1.70;;;23.50;46.20;;;;;;5019789;28;20432;-66
2023/08/29 00:19:05;;;;;;;1.93;1.83;;;23.50;45.80;;;;;;5021007;28;20254;-66
2023/08/29 00:21:31;;;;;;;1.70;1.60;;;23.60;45.80;;;;;;5019245;28;20218;-67
2023/08/29 00:23:56;;;;;;;1.73;1.63;;;23.60;45.80;;;;;;5021103;28;20463;-67
2023/08/29 00:26:22;;;;;;;1.70;1.60;;;23.50;45.70;;;;;;5021197;28;20226;-67
2023/08/29 00:28:49;;;;;;;1.60;1.50;;;23.50;45.70;;;;;;5023452;28;20296;-68
2023/08/29 00:31:15;;;;;;;1.80;1.70;;;23.50;45.70;;;;;;5014849;28;21128;-68
2023/08/29 00:33:40;;;;;;;1.80;1.70;;;23.50;45.70;;;;;;5019989;28;20468;-68
2023/08/29 00:36:06;;;;;;;1.83;1.73;;;23.60;45.80;;;;;;5016449;28;20292;-66
2023/08/29 00:38:31;;;;;;;1.60;1.50;;;23.50;46.60;;;;;;5018179;28;20613;-67
2023/08/29 00:40:59;;;;;;;1.60;1.50;;;23.60;45.80;;;;;;5018988;28;20230;-66
2023/08/29 00:43:24;;;;;;;1.77;1.67;;;23.50;45.80;;;;;;5017728;28;20246;-67
2023/08/29 00:45:50;;;;;;;1.60;1.50;;;23.50;45.80;;;;;;5017596;28;20473;-67
2023/08/29 00:48:16;;;;;;;1.70;1.60;;;23.50;45.80;;;;;;5021760;28;20227;-66
2023/08/29 00:50:41;;;;;;;1.70;1.60;;;23.50;45.80;;;;;;5017756;28;20226;-68
2023/08/29 00:53:08;;;;;;;1.60;1.50;;;23.50;46.50;;;;;;5018614;28;20229;-66
2023/08/29 00:55:35;;;;;;;1.87;1.77;;;23.50;47.80;;;;;;5015249;28;20356;-68
2023/08/29 00:58:04;;;;;;;1.60;1.50;;;23.50;49.00;;;;;;5016555;28;21132;-67
2023/08/29 01:00:31;;;;;;;1.60;1.50;;;23.50;50.90;;;;;;5017498;28;20975;-69
2023/08/29 01:02:57;;;;;;;1.63;1.53;;;23.50;53.20;;;;;;5020042;28;20469;-67
2023/08/29 01:05:23;;;;;;;1.60;1.50;;;23.50;55.20;;;;;;5017950;28;20562;-67
2023/08/29 01:07:50;;;;;;;1.83;1.73;;;23.50;53.10;;;;;;5018577;28;20803;-66
2023/08/29 01:10:17;;;;;;;1.63;1.53;;;23.50;53.20;;;;;;5019121;28;20226;-68
2023/08/29 01:13:01;;;;;;;1.60;1.50;;;23.50;56.50;;;;;;5016865;28;20803;-67
2023/08/29 01:15:30;;;;;;;1.67;1.57;;;23.50;60.60;;;;;;5012037;28;20463;-66
2023/08/29 01:18:02;;;;;;;1.60;1.50;;;23.50;62.20;;;;;;5015724;28;20545;-67
2023/08/29 01:20:30;;;;;;;2.10;2.00;;;23.50;59.50;;;;;;5018954;28;20984;-68
2023/08/29 01:23:07;;;;;;;1.80;1.70;;;23.50;49.90;;;;;;5016797;28;21160;-66
2023/08/29 01:26:00;;;;;;;1.63;1.53;;;23.50;50.80;;;;;;5017114;28;20476;-66
2023/08/29 01:28:26;;;;;;;2.00;1.90;;;23.50;51.30;;;;;;5014544;28;20598;-67
2023/08/29 01:30:51;;;;;;;1.60;1.50;;;23.50;49.50;;;;;;5019714;28;20451;-69
2023/08/29 01:33:17;;;;;;;1.60;1.50;;;23.50;47.20;;;;;;5015855;28;20226;-67
2023/08/29 01:35:46;;;;;;;1.60;1.50;;;23.50;46.60;;;;;;5018978;28;20272;-67
2023/08/29 01:38:11;;;;;;;1.77;1.67;;;23.50;47.30;;;;;;5020219;28;20239;-69
2023/08/29 01:40:37;;;;;;;1.80;1.70;;;23.50;47.20;;;;;;5019556;28;20491;-68
2023/08/29 01:43:03;;;;;;;1.63;1.53;;;23.50;46.70;;;;;;5023734;28;20249;-70
2023/08/29 01:45:28;;;;;;;1.63;1.53;;;23.50;47.00;;;;;;5025392;28;20248;-67
2023/08/29 01:47:54;;;;;;;1.73;1.63;;;23.50;47.70;;;;;;5023462;28;20288;-67
2023/08/29 01:50:20;;;;;;;1.60;1.50;;;23.50;47.50;;;;;;5021598;28;20252;-70
2023/08/29 01:52:47;;;;;;;1.60;1.50;;;23.50;46.30;;;;;;5024854;28;20222;-69
2023/08/29 01:55:13;;;;;;;1.80;1.70;;;23.50;45.90;;;;;;5022435;28;20467;-67
2023/08/29 01:57:39;;;;;;;1.60;1.50;;;23.50;45.90;;;;;;5025794;28;20482;-67
2023/08/29 02:00:05;;;;;;;1.90;1.80;;;23.50;46.00;;;;;;5020679;28;20231;-69
2023/08/29 02:02:31;;;;;;;1.70;1.60;;;23.50;45.90;;;;;;5023733;28;20334;-67
2023/08/29 02:04:56;;;;;;;1.40;1.30;;;23.50;45.90;;;;;;5023903;28;21194;-67
2023/08/29 02:07:22;;;;;;;1.60;1.50;;;23.50;45.90;;;;;;5023927;28;20242;-69
2023/08/29 02:09:47;;;;;;;1.70;1.60;;;23.50;45.90;;;;;;5024473;28;20223;-67
2023/08/29 02:12:13;;;;;;;1.53;1.43;;;23.50;45.90;;;;;;5022886;28;20226;-69
2023/08/29 02:14:38;;;;;;;1.60;1.50;;;23.50;45.90;;;;;;5020874;28;20779;-66
2023/08/29 02:17:04;;;;;;;1.70;1.60;;;23.50;46.00;;;;;;5038246;28;20299;-67
2023/08/29 02:19:30;;;;;;;1.53;1.43;;;23.50;46.80;;;;;;5025245;28;20708;-67
2023/08/29 02:21:55;;;;;;;1.70;1.60;;;23.50;47.80;;;;;;5023143;28;20464;-66
2023/08/29 02:24:21;;;;;;;1.60;1.43;;;23.50;47.80;;;;;;5025595;28;20292;-69
2023/08/29 02:26:47;;;;;;;1.77;1.67;;;23.50;48.80;;;;;;5023701;28;20230;-67
2023/08/29 02:29:12;;;;;;;1.70;1.60;;;23.50;49.10;;;;;;5023892;28;22341;-67
2023/08/29 02:31:38;;;;;;;1.60;1.50;;;23.50;49.90;;;;;;5023606;28;20830;-67
2023/08/29 02:34:03;;;;;;;1.50;1.40;;;23.50;50.80;;;;;;5023299;28;20628;-68
2023/08/29 02:36:29;;;;;;;1.80;1.70;;;23.50;51.20;;;;;;5025154;28;20258;-67
2023/08/29 02:38:55;;;;;;;1.50;1.40;;;23.50;52.90;;;;;;5024886;28;20942;-68
2023/08/29 02:41:20;;;;;;;1.70;1.60;;;23.50;53.70;;;;;;5024386;28;20233;-67
2023/08/29 02:43:46;;;;;;;1.67;1.40;;;23.50;53.10;;;;;;5024128;28;20245;-68
2023/08/29 02:46:11;;;;;;;1.50;1.40;;;23.50;54.80;;;;;;5023195;28;20229;-67
2023/08/29 02:48:37;;;;;;;1.70;1.60;;;23.50;56.50;;;;;;5021802;28;20230;-67
2023/08/29 02:51:02;;;;;;;1.80;1.70;;;23.50;61.80;;;;;;5022375;28;20219;-67
2023/08/29 02:53:29;;;;;;;1.87;1.73;;;23.50;57.00;;;;;;5022480;28;20226;-68
2023/08/29 02:55:56;;;;;;;1.60;1.50;;;23.50;61.10;;;;;;5023404;28;20474;-66
2023/08/29 02:58:22;;;;;;;1.70;1.60;;;23.50;51.10;;;;;;5024129;28;20479;-69
2023/08/29 03:00:57;;;;;;;1.63;1.53;;;23.50;51.40;;;;;;5021827;28;20505;-67
2023/08/29 03:03:23;;;;;;;1.50;1.40;;;23.50;51.60;;;;;;5019772;28;20262;-67
2023/08/29 03:05:55;;;;;;;1.60;1.50;;;23.40;51.80;;;;;;5021283;28;20444;-67
2023/08/29 03:08:20;;;;;;;1.63;1.53;;;23.40;52.80;;;;;;5022261;28;20482;-67
2023/08/29 03:10:46;;;;;;;1.70;1.60;;;23.50;50.70;;;;;;5022750;28;21023;-69
2023/08/29 03:13:11;;;;;;;1.90;1.80;;;23.50;47.80;;;;;;5019417;28;20211;-67
2023/08/29 03:15:37;;;;;;;1.90;1.80;;;23.40;47.70;;;;;;5023309;28;21171;-68
2023/08/29 03:18:03;;;;;;;1.83;1.73;;;23.40;47.70;;;;;;5021736;28;20226;-68
2023/08/29 03:20:29;;;;;;;2.07;1.50;;;23.50;47.70;;;;;;5021566;28;20487;-68
2023/08/29 03:22:54;;;;;;;1.80;1.70;;;23.50;47.80;;;;;;5022491;28;21137;-67
2023/08/29 03:25:21;;;;;;;2.03;1.57;;;23.50;48.50;;;;;;5023587;28;20233;-68
2023/08/29 03:27:47;;;;;;;1.90;1.80;;;23.50;47.80;;;;;;5021392;28;20222;-67
2023/08/29 03:30:13;;;;;;;1.70;1.60;;;23.40;47.70;;;;;;5021328;28;20506;-68
2023/08/29 03:32:38;;;;;;;1.80;1.70;;;23.40;47.70;;;;;;5024635;28;20662;-67
2023/08/29 03:35:05;;;;;;;2.50;1.60;;;23.50;47.80;;;;;;5019454;28;20226;-69
2023/08/29 03:37:30;;;;;;;2.27;1.37;;;23.50;47.80;;;;;;5022837;28;20234;-67
2023/08/29 03:39:56;;;;;;;1.60;1.50;;;23.50;47.80;;;;;;5023082;28;20474;-68
2023/08/29 03:42:21;;;;;;;1.70;1.60;;;23.40;48.80;;;;;;5022749;28;20226;-69
2023/08/29 03:44:47;;;;;;;5.03;1.50;;;23.50;49.20;;;;;;5020282;28;20252;-68
2023/08/29 03:47:12;;;;;;;1.60;1.50;;;23.50;51.40;;;;;;5023620;28;20233;-69
2023/08/29 03:49:38;;;;;;;1.60;1.50;;;23.40;63.50;;;;;;5019311;28;20754;-66
2023/08/29 03:52:04;;;;;;;1.70;1.60;;;23.40;62.30;;;;;;5021537;28;20223;-67
2023/08/29 03:54:30;;;;;;;1.40;1.30;;;23.40;59.50;;;;;;5021426;28;20455;-67
2023/08/29 03:56:55;;;;;;;1.60;1.50;;;23.40;62.40;;;;;;5023730;28;20583;-67
2023/08/29 03:59:21;;;;;;;1.53;1.43;;;23.40;55.60;;;;;;5021455;28;20467;-66
2023/08/29 04:01:46;;;;;;;1.67;1.57;;;23.40;57.80;;;;;;5021380;28;20293;-66
2023/08/29 04:04:13;;;;;;;1.70;1.60;;;23.40;55.70;;;;;;5020821;28;20229;-68
2023/08/29 04:06:39;;;;;;;1.60;1.50;;;23.40;54.70;;;;;;5023396;28;20633;-66
2023/08/29 04:09:08;;;;;;;1.60;1.50;;;23.40;58.10;;;;;;5014260;28;21101;-68
2023/08/29 04:11:34;;;;;;;1.50;1.40;;;23.50;58.40;;;;;;5020747;28;20491;-70
2023/08/29 04:14:00;;;;;;;1.70;1.60;;;23.40;57.70;;;;;;5020191;28;20455;-67
2023/08/29 04:16:26;;;;;;;1.53;1.43;;;23.40;53.00;;;;;;5020048;28;20291;-68
2023/08/29 04:18:51;;;;;;;1.87;1.77;;;23.50;53.10;;;;;;5018915;28;20561;-68
2023/08/29 04:21:17;;;;;;;1.73;1.63;;;23.40;52.30;;;;;;5024618;28;20221;-70
2023/08/29 04:23:42;;;;;;;2.23;1.50;;;23.50;53.40;;;;;;5019216;28;20349;-67
2023/08/29 04:26:08;;;;;;;1.80;1.70;;;23.50;51.40;;;;;;5017349;28;20222;-68
2023/08/29 04:28:34;;;;;;;1.90;1.80;;;23.50;49.90;;;;;;5019419;28;20279;-68
2023/08/29 04:31:11;;;;;;;1.60;1.50;;;23.50;50.50;;;;;;5017841;28;20468;-68
2023/08/29 04:33:36;;;;;;;1.50;1.40;;;23.50;50.20;;;;;;5015646;28;20218;-68
2023/08/29 04:36:02;;;;;;;1.97;1.87;;;23.50;50.20;;;;;;5014745;28;20465;-67
2023/08/29 04:38:28;;;;;;;1.60;1.50;;;23.50;50.80;;;;;;5017716;28;20239;-70
2023/08/29 04:40:54;;;;;;;1.50;1.40;;;23.50;50.50;;;;;;5017266;28;20250;-69
2023/08/29 04:43:20;;;;;;;1.63;1.53;;;23.50;51.60;;;;;;5016574;28;22059;-67
2023/08/29 04:45:46;;;;;;;1.43;1.33;;;23.50;50.50;;;;;;5012374;28;20222;-79
2023/08/29 04:48:11;;;;;;;1.40;1.30;;;23.50;48.80;;;;;;5017039;28;20309;-72
2023/08/29 04:50:37;;;;;;;1.60;1.50;;;23.50;50.10;;;;;;5019260;28;20229;-71
2023/08/29 04:53:03;;;;;;;1.60;1.50;;;23.50;48.30;;;;;;5016952;28;20272;-72
2023/08/29 04:55:29;;;;;;;1.53;1.43;;;23.50;50.60;;;;;;5017336;28;20228;-73
2023/08/29 04:57:56;;;;;;;1.70;1.60;;;23.50;48.60;;;;;;5010388;28;20471;-68
2023/08/29 05:00:22;;;;;;;1.90;1.73;;;23.50;50.00;;;;;;5015949;28;20821;-71
2023/08/29 05:02:48;;;;;;;2.50;1.77;;;23.50;48.40;;;;;;5017374;28;20459;-70
2023/08/29 05:05:14;;;;;;;1.80;1.70;;;23.50;50.20;;;;;;5013001;28;20459;-71
2023/08/29 05:07:39;;;;;;;1.53;1.43;;;23.50;48.60;;;;;;5019960;28;20693;-69
2023/08/29 05:10:06;;;;;;;1.70;1.60;;;23.50;47.90;;;;;;5012605;28;20229;-78
2023/08/29 05:12:31;;;;;;;1.63;1.53;;;23.50;48.00;;;;;;5013064;28;20727;-80
2023/08/29 05:14:57;;;;;;;1.70;1.60;;;23.50;47.80;;;;;;5015947;28;21264;-68
2023/08/29 05:17:22;;;;;;;1.80;1.70;;;23.50;50.10;;;;;;5023870;28;20237;-70
2023/08/29 05:19:49;;;;;;;1.53;1.43;;;23.50;48.80;;;;;;5022232;28;20241;-68
2023/08/29 05:22:15;;;;;;;1.93;1.43;;;23.50;50.20;;;;;;5018627;28;20236;-70
2023/08/29 05:24:40;;;;;;;1.30;1.20;;;23.50;50.30;;;;;;5017172;28;20444;-69
2023/08/29 05:27:06;;;;;;;1.80;1.70;;;23.50;50.10;;;;;;5022663;28;20230;-67
2023/08/29 05:29:31;;;;;;;1.67;1.57;;;23.50;50.50;;;;;;5018243;28;20229;-67
2023/08/29 05:31:57;;;;;;;1.80;1.70;;;23.50;53.10;;;;;;5018547;28;20226;-69
2023/08/29 05:34:22;;;;;;;1.70;1.60;;;23.50;56.70;;;;;;5022641;28;20244;-69
2023/08/29 05:36:50;;;;;;;1.60;1.50;;;23.50;54.60;;;;;;5022201;28;20228;-67
2023/08/29 05:39:15;;;;;;;1.57;1.47;;;23.50;53.20;;;;;;5020786;28;20234;-68
2023/08/29 05:41:41;;;;;;;1.60;1.50;;;23.50;53.10;;;;;;5025317;28;20451;-69
2023/08/29 05:44:06;;;;;;;2.90;1.50;;;23.50;49.80;;;;;;5020967;28;20237;-72
2023/08/29 05:46:32;;;;;;;1.47;1.37;;;23.50;52.30;;;;;;5023267;28;20276;-67
2023/08/29 05:48:59;;;;;;;1.60;1.50;;;23.50;53.60;;;;;;5020929;28;20265;-67
2023/08/29 05:51:25;;;;;;;1.40;1.30;;;23.50;45.20;;;;;;5023378;28;20226;-67
2023/08/29 05:53:51;;;;;;;1.60;1.50;;;23.50;46.00;;;;;;5021238;28;20581;-69
2023/08/29 05:56:17;;;;;;;2.10;1.67;;;23.50;45.20;;;;;;5024691;28;20520;-69
2023/08/29 05:58:42;;;;;;;1.57;1.47;;;23.50;45.20;;;;;;5022814;28;20241;-68
2023/08/29 06:01:09;;;;;;;1.50;1.40;;;23.50;45.20;;;;;;5024614;28;20230;-67
2023/08/29 06:03:35;;;;;;;1.60;1.50;;;23.50;45.30;;;;;;5023395;28;20701;-67
2023/08/29 06:06:03;;;;;;;1.87;1.77;;;23.50;45.30;;;;;;5021964;28;20456;-71
2023/08/29 06:08:29;;;;;;;1.67;1.57;;;23.50;45.30;;;;;;5022649;28;20472;-70
2023/08/29 06:10:54;;;;;;;1.50;1.40;;;23.50;45.30;;;;;;5025452;28;20552;-67
2023/08/29 06:13:20;;;;;;;1.50;1.40;;;23.50;45.30;;;;;;5024217;28;20230;-66
2023/08/29 06:15:45;;;;;;;1.60;1.50;;;23.50;45.30;;;;;;5023191;28;20659;-69
2023/08/29 06:18:11;;;;;;;1.57;1.47;;;23.50;45.30;;;;;;5023842;28;20686;-68
2023/08/29 06:20:37;;;;;;;1.57;1.47;;;23.50;45.30;;;;;;5022407;28;20249;-69
2023/08/29 06:23:03;;;;;;;1.40;1.30;;;23.50;45.40;;;;;;5022188;28;20257;-70
2023/08/29 06:25:29;;;;;;;1.53;1.43;;;23.50;45.40;;;;;;5024363;28;20226;-68
2023/08/29 06:27:54;;;;;;;1.43;1.33;;;23.50;46.20;;;;;;5024541;28;20517;-70
2023/08/29 06:30:20;;;;;;;1.50;1.40;;;23.50;45.50;;;;;;5022861;28;20218;-69
2023/08/29 06:32:46;;;;;;;1.60;1.50;;;23.50;45.40;;;;;;5022090;28;20253;-68
2023/08/29 06:35:11;;;;;;;1.50;1.40;;;23.50;45.50;;;;;;5023602;28;20577;-69
2023/08/29 06:37:38;;;;;;;1.60;1.50;;;23.50;45.50;;;;;;5020420;28;20233;-71
2023/08/29 06:40:07;;;;;;;1.57;1.47;;;23.50;45.50;;;;;;5021320;28;21794;-69
2023/08/29 06:42:33;;;;;;;1.60;1.50;;;23.50;45.50;;;;;;5023471;28;20503;-71
2023/08/29 06:44:58;;;;;;;1.60;1.50;;;23.50;45.50;;;;;;5020055;28;21037;-67
2023/08/29 06:47:25;;;;;;;1.50;1.40;;;23.50;45.60;;;;;;5019984;28;20226;-67
2023/08/29 06:49:52;;;;;;;1.80;1.70;;;23.50;45.60;;;;;;5018633;28;22153;-68
2023/08/29 06:52:18;;;;;;;1.50;1.40;;;23.50;45.50;;;;;;5016166;28;20562;-69
2023/08/29 06:54:44;;;;;;;1.50;1.40;;;23.50;45.60;;;;;;5019355;28;20467;-68
2023/08/29 06:57:09;;;;;;;1.60;1.50;;;23.50;45.60;;;;;;5018202;28;20329;-67
2023/08/29 06:59:35;;;;;;;1.60;1.50;;;23.50;45.60;;;;;;5020759;28;20236;-67
2023/08/29 07:02:00;;;;;;;1.60;1.50;;;23.50;45.60;;;;;;5019441;28;20929;-69
2023/08/29 07:04:26;;;;;;;1.43;1.33;;;23.50;45.60;;;;;;5023718;28;20258;-67
2023/08/29 07:06:51;;;;;;;1.60;1.50;;;23.50;45.60;;;;;;5021807;28;20226;-71
2023/08/29 07:09:17;;;;;;;1.40;1.30;;;23.50;45.60;;;;;;5022860;28;20623;-68
2023/08/29 07:11:42;;;;;;;1.50;1.40;;;23.50;45.60;;;;;;5018913;28;20555;-67
2023/08/29 07:14:08;;;;;;;1.57;1.47;;;23.50;45.60;;;;;;5020503;28;20292;-67
2023/08/29 07:16:33;;;;;;;1.70;1.33;;;23.50;45.60;;;;;;5021845;28;20226;-66
2023/08/29 07:18:59;;;;;;;2.70;1.50;;;23.50;45.60;;;;;;5020784;28;20247;-68
2023/08/29 07:21:24;;;;;;;1.67;1.57;;;23.50;45.60;;;;;;5020892;28;20313;-69
2023/08/29 07:23:50;;;;;;;1.50;1.40;;;23.50;45.60;;;;;;5018621;28;20218;-68
2023/08/29 07:26:15;;;;;;;1.70;1.60;;;23.50;45.60;;;;;;5022232;28;20235;-69
2023/08/29 07:28:41;;;;;;;1.67;1.50;;;23.50;45.60;;;;;;5019924;28;20268;-66
2023/08/29 07:31:06;;;;;;;1.40;1.30;;;23.50;45.60;;;;;;5023313;28;20257;-67
2023/08/29 07:33:32;;;;;;;1.50;1.40;;;23.50;45.60;;;;;;5023991;28;20659;-71
2023/08/29 07:35:58;;;;;;;1.70;1.60;;;23.50;45.60;;;;;;5021008;28;20214;-70
2023/08/29 07:38:23;;;;;;;1.47;1.37;;;23.60;45.70;;;;;;5023843;28;20237;-68
2023/08/29 07:40:49;;;;;;;1.93;1.30;;;23.60;45.70;;;;;;5022555;28;20279;-68
2023/08/29 07:43:15;;;;;;;1.57;1.47;;;23.50;45.70;;;;;;5021994;28;20222;-67
2023/08/29 07:45:41;;;;;;;1.40;1.30;;;23.50;45.70;;;;;;5016853;28;20225;-70
2023/08/29 07:48:06;;;;;;;1.50;1.40;;;23.50;45.70;;;;;;5014576;28;20460;-69
2023/08/29 07:50:32;;;;;;;1.43;1.33;;;23.50;45.70;;;;;;5019283;28;21944;-67
2023/08/29 07:52:58;;;;;;;1.50;1.40;;;23.50;45.70;;;;;;5021887;28;21479;-68
2023/08/29 07:55:24;;;;;;;1.67;1.57;;;23.50;45.70;;;;;;5022768;28;20292;-67
2023/08/29 07:57:50;;;;;;;1.60;1.50;;;23.50;45.70;;;;;;5021930;28;20234;-67
2023/08/29 08:00:17;;;;;;;1.50;1.40;;;23.50;45.70;;;;;;5020396;28;21162;-67
2023/08/29 08:02:43;;;;;;;3.77;1.50;;;23.50;45.70;;;;;;5017368;28;20464;-67
2023/08/29 08:05:11;;;;;;;1.53;1.43;;;23.50;45.70;;;;;;5016331;28;20463;-71
2023/08/29 08:07:37;;;;;;;1.40;1.30;;;23.50;45.70;;;;;;5017567;28;20467;-71
2023/08/29 08:10:04;;;;;;;1.60;1.50;;;23.50;45.70;;;;;;5017439;28;20463;-71
2023/08/29 08:12:33;;;;;;;1.60;1.50;;;23.50;45.70;;;;;;5020680;28;22584;-66
2023/08/29 08:14:59;;;;;;;1.53;1.43;;;23.50;45.70;;;;;;5015492;28;20554;-66
2023/08/29 08:17:25;;;;;;;2.43;1.20;;;23.50;45.70;;;;;;5019195;28;20498;-67
2023/08/29 08:19:51;;;;;;;1.50;1.40;;;23.50;45.70;;;;;;5017036;28;21520;-70
2023/08/29 08:22:16;;;;;;;1.50;1.40;;;23.50;45.70;;;;;;5020747;28;20222;-71
2023/08/29 08:24:42;;;;;;;1.50;1.40;;;23.50;45.70;;;;;;5020164;28;20976;-69
2023/08/29 08:27:07;;;;;;;1.50;1.40;;;23.50;45.70;;;;;;5020893;28;22061;-68
2023/08/29 08:29:33;;;;;;;1.50;1.40;;;23.50;45.70;;;;;;5018014;28;20226;-67
2023/08/29 08:31:59;;;;;;;1.67;1.57;;;23.50;45.70;;;;;;5020762;28;20222;-67
2023/08/29 08:34:24;;;;;;;1.50;1.40;;;23.50;45.80;;;;;;5015551;28;20218;-68
2023/08/29 08:36:50;;;;;;;1.50;1.40;;;23.50;45.80;;;;;;5021253;28;20221;-67
2023/08/29 08:39:15;;;;;;;1.37;1.20;;;23.50;45.80;;;;;;5021997;28;20230;-71
2023/08/29 08:41:42;;;;;;;1.40;1.30;;;23.50;45.80;;;;;;5017554;28;20231;-69
2023/08/29 08:44:11;;;;;;;1.40;1.30;;;23.50;45.80;;;;;;5017560;28;20241;-67
2023/08/29 08:46:37;;;;;;;1.53;1.43;;;23.60;45.80;;;;;;5020492;28;20452;-67
2023/08/29 08:49:03;;;;;;;1.50;1.40;;;23.50;45.80;;;;;;5021698;28;20463;-67
2023/08/29 08:51:30;;;;;;;1.50;1.40;;;23.50;45.80;;;;;;5018485;28;20451;-68
2023/08/29 08:53:56;;;;;;;1.27;1.20;;;23.50;45.80;;;;;;5016931;28;20313;-70
2023/08/29 08:56:23;;;;;;;1.37;1.27;;;23.50;45.90;;;;;;5020781;28;20474;-68
2023/08/29 08:58:49;;;;;;;1.40;1.30;;;23.50;45.80;;;;;;5021134;28;20861;-69
2023/08/29 09:01:15;;;;;;;1.43;1.33;;;23.50;45.80;;;;;;5022721;28;20449;-70
2023/08/29 09:03:42;;;;;;;1.30;1.20;;;23.50;45.80;;;;;;5019570;28;20495;-67
2023/08/29 09:06:09;;;;;;;1.50;1.40;;;23.50;45.90;;;;;;5021735;28;20475;-67
2023/08/29 09:08:34;;;;;;;1.50;1.40;;;23.50;45.80;;;;;;5021315;28;20503;-68
2023/08/29 09:11:01;;;;;;;1.60;1.50;;;23.50;45.80;;;;;;5019076;28;20471;-67
2023/08/29 09:13:27;;;;;;;1.60;1.50;;;23.50;45.80;;;;;;5018015;28;20292;-67
2023/08/29 09:15:53;;;;;;;1.40;1.30;;;23.50;45.80;;;;;;5020074;28;21278;-67
2023/08/29 09:18:31;;;;;;;1.60;1.50;;;23.60;45.90;;;;;;5022305;28;20250;-68
2023/08/29 09:21:00;;;;;;;6.97;1.20;;;23.50;45.80;;;;;;5021022;28;20467;-68
2023/08/29 09:23:28;;;;;;;3.00;1.30;;;23.50;45.80;;;;;;5017879;28;20529;-68
2023/08/29 09:25:54;;;;;;;2.03;1.40;;;23.50;45.80;;;;;;5021395;28;20471;-68
2023/08/29 09:28:21;;;;;;;1.30;1.20;;;23.60;46.00;;;;;;5020153;28;20473;-70
2023/08/29 09:30:47;;;;;;;1.20;1.10;;;23.50;45.80;;;;;;5020627;28;20448;-67
2023/08/29 09:33:18;;;;;;;1.47;1.37;;;23.60;45.80;;;;;;5023411;28;20510;-67
2023/08/29 09:35:43;;;;;;;1.37;1.27;;;23.60;45.80;;;;;;5018158;28;20447;-70
2023/08/29 09:38:10;;;;;;;1.77;1.67;;;23.60;45.80;;;;;;5020853;28;20474;-70
2023/08/29 09:40:48;;;;;;;1.40;1.30;;;23.60;45.80;;;;;;5020283;28;20225;-67
2023/08/29 09:43:15;;;;;;;1.20;1.10;;;23.60;45.90;;;;;;5021238;28;20524;-67
2023/08/29 09:45:42;;;;;;;1.30;1.20;;;23.60;45.80;;;;;;5017044;28;20528;-70
2023/08/29 09:48:08;;;;;;;1.37;1.27;;;23.60;45.80;;;;;;5020866;28;20458;-68
2023/08/29 09:50:35;;;;;;;1.20;1.10;;;23.60;45.80;;;;;;5021252;28;21782;-67
2023/08/29 09:53:02;;;;;;;1.57;1.47;;;23.60;45.80;;;;;;5016906;28;20526;-68
2023/08/29 09:55:33;;;;;;;1.67;1.47;;;23.60;45.80;;;;;;5013378;28;20472;-68
2023/08/29 09:58:00;;;;;;;1.30;1.10;;;23.60;45.80;;;;;;5015274;28;20471;-67
2023/08/29 10:00:26;;;;;;;1.30;1.20;;;23.60;45.80;;;;;;5014880;28;20463;-69
2023/08/29 10:02:56;;;;;;;1.33;1.23;;;23.60;45.80;;;;;;5017313;28;20815;-71
2023/08/29 10:05:26;;;;;;;1.30;1.20;;;23.60;45.80;;;;;;5022344;28;20301;-68
2023/08/29 10:07:57;;;;;;;1.67;1.30;;;23.60;45.80;;;;;;5022190;28;20451;-70
2023/08/29 10:10:24;;;;;;;1.30;1.20;;;23.60;45.80;;;;;;5023484;28;20460;-72
2023/08/29 10:12:50;;;;;;;1.33;1.23;;;23.60;46.70;;;;;;5023257;28;20456;-68
2023/08/29 10:15:20;;;;;;;1.20;1.10;;;23.60;45.70;;;;;;5023736;28;20507;-70
2023/08/29 10:17:47;;;;;;;1.23;1.13;;;23.60;45.70;;;;;;5024576;28;21055;-72
2023/08/29 10:20:13;;;;;;;1.30;1.20;;;23.60;45.70;;;;;;5023232;28;20462;-71
2023/08/29 10:22:41;;;;;;;1.20;1.10;;;23.60;45.60;;;;;;5023140;28;20471;-69
2023/08/29 10:25:07;;;;;;;1.30;1.20;;;23.60;45.70;;;;;;5022015;28;20464;-72
2023/08/29 10:27:34;;;;;;;1.17;1.07;;;23.60;45.60;;;;;;5022685;28;20482;-68
2023/08/29 10:30:05;;;;;;;1.30;1.20;;;23.60;45.60;;;;;;5024867;28;20226;-68
2023/08/29 10:32:33;;;;;;;1.50;1.40;;;23.60;45.60;;;;;;5024902;28;20467;-70
2023/08/29 10:34:59;;;;;;;1.23;1.13;;;23.60;45.60;;;;;;5025674;28;20589;-70
2023/08/29 10:37:26;;;;;;;0.97;0.97;;;23.60;45.70;;;;;;5021891;28;20462;-69
2023/08/29 10:39:51;;;;;;;1.10;1.00;;;23.60;45.50;;;;;;5018030;28;20781;-71
2023/08/29 10:42:17;;;;;;;1.30;1.20;;;23.60;45.60;;;;;;5025317;28;21530;-68
2023/08/29 10:44:44;;;;;;;1.17;1.07;;;23.60;45.60;;;;;;5023207;28;20226;-68
2023/08/29 10:47:20;;;;;;;1.17;1.10;;;23.60;45.50;;;;;;5021981;28;20224;-69
2023/08/29 10:49:47;;;;;;;1.20;1.10;;;23.60;45.60;;;;;;5022868;28;20467;-69
2023/08/29 10:52:14;;;;;;;1.20;1.10;;;23.60;45.50;;;;;;5023473;28;20447;-72
2023/08/29 10:54:40;;;;;;;1.17;1.07;;;23.60;45.60;;;;;;5020758;28;20467;-69
2023/08/29 10:57:28;;;;;;;1.33;1.23;;;23.60;45.50;;;;;;5024742;28;20518;-67
2023/08/29 10:59:54;;;;;;;1.53;1.43;;;23.60;45.50;;;;;;5017837;28;20463;-69
2023/08/29 11:02:30;;;;;;;1.20;1.10;;;23.60;45.60;;;;;;5015796;28;20466;-69
2023/08/29 11:05:05;;;;;;;1.30;1.20;;;23.60;45.50;;;;;;5021285;28;20576;-68
2023/08/29 11:07:31;;;;;;;1.30;1.20;;;23.60;45.50;;;;;;5021654;28;20471;-68
2023/08/29 11:10:20;;;;;;;1.37;1.27;;;23.60;45.50;;;;;;5020714;28;20463;-68
2023/08/29 11:13:12;;;;;;;1.20;1.10;;;23.60;45.50;;;;;;5021802;28;20469;-69
2023/08/29 11:15:50;;;;;;;1.00;1.00;;;23.60;45.50;;;;;;5019298;28;20468;-69
2023/08/29 11:18:24;;;;;;;1.27;1.17;;;23.60;45.50;;;;;;5021932;28;20471;-69
2023/08/29 11:20:51;;;;;;;1.20;1.10;;;23.60;45.50;;;;;;5021948;28;20468;-71
2023/08/29 11:23:17;;;;;;;1.20;1.10;;;23.60;45.50;;;;;;5022569;28;20527;-69
2023/08/29 11:25:42;;;;;;;0.90;0.90;;;23.60;45.50;;;;;;5020178;28;20505;-68
2023/08/29 11:28:08;;;;;;;1.30;1.20;;;23.60;45.50;;;;;;5019665;28;20474;-70
2023/08/29 11:30:34;;;;;;;1.30;1.20;;;23.60;45.50;;;;;;5021015;28;20893;-72
2023/08/29 11:32:59;;;;;;;1.30;1.20;;;23.60;45.50;;;;;;5026021;28;20262;-68
2023/08/29 11:35:28;;;;;;;1.30;1.20;;;23.60;45.50;;;;;;5022683;28;20219;-70
2023/08/29 11:37:54;;;;;;;1.50;1.40;;;23.60;45.40;;;;;;5021344;28;20303;-69
2023/08/29 11:40:20;;;;;;;1.20;1.13;;;23.60;45.40;;;;;;5022369;28;20840;-71
2023/08/29 11:42:45;;;;;;;1.20;1.10;;;23.60;45.40;;;;;;5020827;28;20364;-68
2023/08/29 11:45:14;;;;;;;1.30;1.20;;;23.60;45.40;;;;;;5020390;28;20480;-72
2023/08/29 11:47:41;;;;;;;1.30;1.20;;;23.60;45.30;;;;;;5021121;28;20225;-71
2023/08/29 11:50:07;;;;;;;1.30;1.20;;;23.60;45.30;;;;;;5019397;28;20456;-68
2023/08/29 11:52:32;;;;;;;1.03;1.00;;;23.60;45.30;;;;;;5019229;28;20464;-68
2023/08/29 11:55:00;;;;;;;1.50;1.40;;;23.60;45.30;;;;;;5015529;28;20230;-70
2023/08/29 11:57:29;;;;;;;1.20;1.10;;;23.60;45.30;;;;;;5018149;28;20298;-72
2023/08/29 11:59:56;;;;;;;1.30;1.20;;;23.60;45.30;;;;;;5021095;28;21088;-73
2023/08/29 12:02:23;;;;;;;1.30;1.20;;;23.60;45.30;;;;;;5020870;28;20452;-70
2023/08/29 12:04:56;;;;;;;1.13;1.03;;;23.60;45.20;;;;;;5020244;28;21014;-69
2023/08/29 12:07:23;;;;;;;1.27;1.17;;;23.60;45.20;;;;;;5021332;28;20528;-68
2023/08/29 12:09:52;;;;;;;1.30;1.20;;;23.60;45.30;;;;;;5021736;28;20947;-69
2023/08/29 12:12:35;;;;;;;1.30;1.20;;;23.60;45.20;;;;;;5021148;28;20474;-69
2023/08/29 12:15:05;;;;;;;1.17;1.10;;;23.60;45.20;;;;;;5020488;28;20516;-73
2023/08/29 12:17:39;;;;;;;1.27;1.07;;;23.60;45.30;;;;;;5021187;28;21247;-68
2023/08/29 12:20:14;;;;;;;1.10;1.00;;;23.60;45.20;;;;;;5019989;28;20474;-67
2023/08/29 12:22:50;;;;;;;1.10;1.10;;;23.60;45.20;;;;;;5022345;28;21070;-68
2023/08/29 12:25:16;;;;;;;1.30;1.20;;;23.60;45.20;;;;;;5020454;28;20516;-70
2023/08/29 12:27:44;;;;;;;1.20;1.10;;;23.60;45.20;;;;;;5018048;28;20944;-68
2023/08/29 12:30:13;;;;;;;1.13;1.03;;;23.60;45.20;;;;;;5018905;28;20819;-70
2023/08/29 12:32:39;;;;;;;1.40;1.30;;;23.60;45.20;;;;;;5011030;28;20965;-68
2023/08/29 12:35:06;;;;;;;1.10;1.00;;;23.60;45.20;;;;;;5016537;28;20456;-69
2023/08/29 12:37:32;;;;;;;1.17;1.07;;;23.60;45.20;;;;;;5014990;28;20226;-69
2023/08/29 12:39:57;;;;;;;1.30;1.20;;;23.60;45.20;;;;;;5016937;28;20459;-68
2023/08/29 12:42:23;;;;;;;1.37;1.27;;;23.50;45.10;;;;;;5012607;28;20469;-71
2023/08/29 12:44:48;;;;;;;1.00;1.00;;;23.60;45.20;;;;;;5014862;28;20326;-67
2023/08/29 12:47:14;;;;;;;1.40;1.30;;;23.60;45.20;;;;;;5015962;28;20233;-70